M I D A S
Marine Information and Data Acquisition System
Tripno 749 of the Zeeleeuw from 2004-07-15 07:01:23 to 2004-07-15 15:27:17
Back to CruiseResearch ActivitiesStationsMapUnderway DataData graphs

EquipmentUnitsComment
TimeDGPSUTC
LatitudeDGPSDM.mWGS84
LongitudeDGPSDM.mWGS84
HeadingGyrodeg 
SOGDGPSknotsSpeed over ground
COGDGPSdegCourse over ground
DepthEcho soundermeters200 kHz
Missing or incorrect values are displayed as -999
Navigation data collected by the RV Zeeleeuw from 2004-07-15 07:01:23 to 2004-07-15 15:27:17
Time Latitude Longitude Heading SOG COG Depth
2004-07-15 07:02:25 51°13.596 2°56.097 114.6 0.1 193 7.7
2004-07-15 07:03:25 51°13.605 2°56.055 116.1 1.3 290 -999
2004-07-15 07:04:25 51°13.589 2°56.085 137 2.8 131 10.1
2004-07-15 07:05:25 51°13.551 2°56.15 137.4 3.4 133 10.3
2004-07-15 07:06:25 51°13.539 2°56.239 79 3.2 74 8.7
2004-07-15 07:07:25 51°13.535 2°56.239 61.7 1 235 -999
2004-07-15 07:08:25 51°13.543 2°56.252 21.6 0.7 175 -999
2004-07-15 07:09:25 51°13.533 2°56.251 357.6 1.5 2 -999
2004-07-15 07:10:25 51°13.525 2°56.265 350.2 1.7 157 -999
2004-07-15 07:11:25 51°13.54 2°56.234 301.5 2.9 296 8.6
2004-07-15 07:12:23 51°13.555 2°56.165 293.9 2.9 287 10.4
2004-07-15 07:13:25 51°13.575 2°56.097 301.1 2.7 297 10.2
2004-07-15 07:14:24 51°13.597 2°56.036 304.9 2.7 303 10.3
2004-07-15 07:15:25 51°13.623 2°55.977 308.7 2.7 306 10.8
2004-07-15 07:16:25 51°13.652 2°55.917 307.6 3.4 304 10.3
2004-07-15 07:17:25 51°13.695 2°55.812 311.3 6 306 10.8
2004-07-15 07:18:25 51°13.775 2°55.679 324.2 7.5 321 -999
2004-07-15 07:19:25 51°13.89 2°55.58 341.8 8.4 337 9.4
2004-07-15 07:20:25 51°14.023 2°55.49 341.6 8.8 336 11
2004-07-15 07:21:25 51°14.172 2°55.379 336.7 10.8 330 11.8
2004-07-15 07:22:25 51°14.302 2°55.179 316.3 11.1 310 10.9
2004-07-15 07:23:25 51°14.428 2°54.939 313.6 12.8 307 10.8
2004-07-15 07:24:25 51°14.561 2°54.662 308.1 13.4 299 10.1
2004-07-15 07:25:23 51°14.661 2°54.357 305.1 13.5 298 10.1
2004-07-15 07:26:25 51°14.776 2°54.036 304.8 13.4 298 9.8
2004-07-15 07:27:24 51°14.877 2°53.729 305.5 13.3 298 9.5
2004-07-15 07:28:25 51°14.983 2°53.412 305.5 13.4 298 9.8
2004-07-15 07:29:25 51°15.088 2°53.099 306.6 13.4 299 9.8
2004-07-15 07:30:25 51°15.186 2°52.779 298.6 13.5 289 10.7
2004-07-15 07:31:24 51°15.25 2°52.438 294 13.7 286 11.4
2004-07-15 07:32:24 51°15.294 2°52.08 285.7 13.9 278 12
2004-07-15 07:33:25 51°15.304 2°51.705 273.7 14 267 12.3
2004-07-15 07:34:25 51°15.265 2°51.338 262.9 14.2 257 12.5
2004-07-15 07:35:25 51°15.219 2°50.97 267 14.1 261 12.7
2004-07-15 07:36:25 51°15.184 2°50.6 268.5 14 262 12.8
2004-07-15 07:37:25 51°15.15 2°50.231 267.1 14.1 261 13
2004-07-15 07:38:25 51°15.116 2°49.863 267.7 14 261 12.9
2004-07-15 07:39:25 51°15.084 2°49.495 268.2 14 263 13
2004-07-15 07:40:25 51°15.046 2°49.128 265.8 14 261 13
2004-07-15 07:41:25 51°15.008 2°48.761 266.4 14 261 12.8
2004-07-15 07:42:25 51°14.971 2°48.395 265.2 13.9 260 12.9
2004-07-15 07:43:25 51°14.932 2°48.032 266.3 13.8 260 13.2
2004-07-15 07:44:25 51°14.894 2°47.67 266.4 13.7 261 13.3
2004-07-15 07:45:25 51°14.858 2°47.312 266.3 13.7 260 13
2004-07-15 07:46:25 51°14.822 2°46.955 266 13.7 260 11.7
2004-07-15 07:47:25 51°14.785 2°46.6 266.4 13.5 260 10
2004-07-15 07:48:25 51°14.752 2°46.245 267.4 13.5 261 9.2
2004-07-15 07:49:25 51°14.716 2°45.89 268 13.7 262 9.2
2004-07-15 07:50:25 51°14.679 2°45.529 265.9 13.9 261 10.5
2004-07-15 07:51:25 51°14.64 2°45.166 265.7 13.9 260 11.9
2004-07-15 07:52:25 51°14.601 2°44.803 266.3 13.9 260 13.5
2004-07-15 07:53:25 51°14.562 2°44.439 266.3 13.9 260 14.8
2004-07-15 07:54:25 51°14.523 2°44.075 266.1 13.9 260 15.9
2004-07-15 07:55:25 51°14.506 2°43.711 273.3 13.8 267 16.7
2004-07-15 07:56:25 51°14.493 2°43.344 272.5 13.8 267 17.2
2004-07-15 07:57:25 51°14.48 2°42.977 272.8 13.8 268 17.8
2004-07-15 07:58:25 51°14.475 2°42.611 274.7 13.8 269 18
2004-07-15 07:59:25 51°14.47 2°42.249 275 13.6 269 17.3
2004-07-15 08:00:25 51°14.465 2°41.891 274.1 13.6 268 15.5
2004-07-15 08:01:24 51°14.459 2°41.538 274.3 13.5 268 14.7
2004-07-15 08:02:25 51°14.429 2°41.179 263.5 13.5 258 14.9
2004-07-15 08:03:25 51°14.394 2°40.824 267.1 13.5 262 14.2
2004-07-15 08:04:25 51°14.361 2°40.47 266.5 13.5 262 14.2
2004-07-15 08:05:25 51°14.33 2°40.118 266.5 13.3 262 12.6
2004-07-15 08:06:25 51°14.298 2°39.767 267.1 13.3 262 14
2004-07-15 08:07:25 51°14.267 2°39.414 266.4 13.4 261 13.8
2004-07-15 08:08:25 51°14.216 2°39.067 262 13.4 257 11.7
2004-07-15 08:09:25 51°14.163 2°38.716 262.3 13.6 257 13.8
2004-07-15 08:10:25 51°14.099 2°38.367 255.6 13.7 251 17.2
2004-07-15 08:11:25 51°14.025 2°38.021 255.4 13.8 251 18.6
2004-07-15 08:12:23 51°13.954 2°37.685 255.9 13.9 252 19
2004-07-15 08:13:25 51°13.88 2°37.325 256.2 13.8 252 20.7
2004-07-15 08:14:25 51°13.791 2°36.987 248.6 13.8 245 21.3
2004-07-15 08:15:25 51°13.695 2°36.655 248.2 13.8 245 20.1
2004-07-15 08:16:25 51°13.601 2°36.323 249.1 13.7 246 20.3
2004-07-15 08:17:25 51°13.497 2°35.999 245.8 13.6 243 17.9
2004-07-15 08:18:25 51°13.393 2°35.676 245.7 13.7 243 18.4
2004-07-15 08:19:25 51°13.29 2°35.353 246.1 13.6 243 18.1
2004-07-15 08:20:25 51°13.186 2°35.03 245.9 13.8 243 17.9
2004-07-15 08:21:23 51°13.086 2°34.717 246.2 13.7 243 18.4
2004-07-15 08:22:25 51°12.978 2°34.385 245.4 13.6 242 18.2
2004-07-15 08:23:25 51°12.876 2°34.066 246.1 13.5 242 17.8
2004-07-15 08:24:25 51°12.772 2°33.748 246.3 13.4 243 17
2004-07-15 08:25:25 51°12.67 2°33.431 246.3 13.3 242 16
2004-07-15 08:26:25 51°12.567 2°33.116 246.5 13.4 242 15.9
2004-07-15 08:27:25 51°12.464 2°32.801 246.6 13.5 242 16.5
2004-07-15 08:28:25 51°12.361 2°32.487 246 13.5 242 17.4
2004-07-15 08:29:25 51°12.26 2°32.167 248.3 13.6 244 18.6
2004-07-15 08:30:25 51°12.162 2°31.844 248.3 13.5 245 19.5
2004-07-15 08:31:25 51°12.065 2°31.521 248 13.5 244 21.3
2004-07-15 08:32:25 51°11.968 2°31.197 248.3 13.5 244 22.3
2004-07-15 08:33:25 51°11.876 2°30.871 251.6 13.5 247 22.7
2004-07-15 08:34:25 51°11.79 2°30.541 251.5 13.5 248 22.9
2004-07-15 08:35:25 51°11.704 2°30.21 251.8 13.4 248 23.7
2004-07-15 08:36:25 51°11.619 2°29.88 251.3 13.5 247 23.9
2004-07-15 08:37:25 51°11.534 2°29.551 252 13.4 248 24
2004-07-15 08:38:25 51°11.451 2°29.223 253.2 13.3 249 24.5
2004-07-15 08:39:27 51°11.377 2°28.88 255 13.2 252 24.5
2004-07-15 08:40:27 51°11.314 2°28.549 256.1 13.2 253 23.2
2004-07-15 08:41:27 51°11.247 2°28.217 255.7 13.2 252 22.4
2004-07-15 08:42:27 51°11.191 2°27.884 259.5 13 256 21.5
2004-07-15 08:43:27 51°11.14 2°27.549 260.3 13 256 24.3
2004-07-15 08:44:27 51°11.088 2°27.216 259.3 12.9 257 23.4
2004-07-15 08:45:27 51°11.038 2°26.888 259.8 12.7 257 23.6
2004-07-15 08:46:27 51°10.988 2°26.561 259.1 12.7 256 23.1
2004-07-15 08:47:27 51°10.949 2°26.235 263.4 12.4 260 21
2004-07-15 08:48:27 51°10.914 2°25.911 263.6 12.4 259 19
2004-07-15 08:49:24 51°10.878 2°25.601 263.3 12.6 259 17.2
2004-07-15 08:50:31 51°10.833 2°25.236 263.3 12.6 259 14.7
2004-07-15 08:51:32 51°10.793 2°24.903 264.1 12.5 259 16.2
2004-07-15 08:52:32 51°10.745 2°24.577 258.3 12.8 255 26.6
2004-07-15 08:53:32 51°10.676 2°24.256 250.9 12.9 246 26
2004-07-15 08:54:32 51°10.581 2°23.947 247.5 13 241 28.6
2004-07-15 08:55:32 51°10.456 2°23.664 238 13.1 233 27.5
2004-07-15 08:56:32 51°10.329 2°23.385 238.4 13 234 29.4
2004-07-15 08:57:32 51°10.204 2°23.105 238.2 13 234 28.9
2004-07-15 08:58:32 51°10.079 2°22.826 238.7 12.9 235 28.9
2004-07-15 08:59:31 51°9.957 2°22.552 238.7 12.9 235 28.3
2004-07-15 09:00:33 51°9.84 2°22.254 242.3 12.8 238 29
2004-07-15 09:01:35 51°9.724 2°21.955 242.7 12.9 239 30.2
2004-07-15 09:02:31 51°9.623 2°21.686 244.4 12.6 241 30.5
2004-07-15 09:03:39 51°9.51 2°21.356 247.3 12.4 245 31.5
2004-07-15 09:04:40 51°9.424 2°21.055 250.4 12.3 246 30.3
2004-07-15 09:05:39 51°9.341 2°20.764 249.7 12.3 246 29.2
2004-07-15 09:06:39 51°9.278 2°20.455 259.1 12.2 258 26.5
2004-07-15 09:07:40 51°9.24 2°20.13 263.8 12.3 260 26.6
2004-07-15 09:08:39 51°9.204 2°19.817 265.2 12.2 263 25.5
2004-07-15 09:09:40 51°9.195 2°19.488 271.7 12.2 268 20.8
2004-07-15 09:10:39 51°9.186 2°19.171 271.5 12.3 269 21.9
2004-07-15 09:11:39 51°9.177 2°18.845 270.4 12.3 268 24.1
2004-07-15 09:12:39 51°9.171 2°18.521 272.1 12.3 269 23.7
2004-07-15 09:13:39 51°9.171 2°18.195 272.7 12.2 270 24.3
2004-07-15 09:14:40 51°9.169 2°17.867 272.2 12.2 269 24.9
2004-07-15 09:15:40 51°9.167 2°17.544 272.1 12.1 270 20.7
2004-07-15 09:16:40 51°9.165 2°17.222 271.9 12.2 270 19.3
2004-07-15 09:17:39 51°9.163 2°16.903 272.5 12.2 269 19.2
2004-07-15 09:18:40 51°9.168 2°16.575 274.9 12.2 272 20.1
2004-07-15 09:19:39 51°9.174 2°16.258 274.3 12.1 271 19.7
2004-07-15 09:20:39 51°9.177 2°15.938 272.5 12.1 269 20.2
2004-07-15 09:21:44 51°9.176 2°15.592 272.1 12 270 22.3
2004-07-15 09:22:44 51°9.176 2°15.274 272 12.1 271 27.2
2004-07-15 09:23:44 51°9.177 2°14.957 272 12.1 270 34.4
2004-07-15 09:24:43 51°9.132 2°14.657 247.7 12 242 35.7
2004-07-15 09:25:44 51°9.019 2°14.387 236.6 12.1 232 36.4
2004-07-15 09:26:43 51°8.896 2°14.142 233.7 12.1 228 37.9
2004-07-15 09:27:44 51°8.755 2°13.902 232 12.2 227 34.7
2004-07-15 09:28:43 51°8.621 2°13.67 232.6 12.2 226 34.2
2004-07-15 09:29:44 51°8.483 2°13.428 232.9 12.2 228 31.5
2004-07-15 09:30:44 51°8.347 2°13.188 232.7 12.2 227 30.3
2004-07-15 09:31:44 51°8.212 2°12.948 233.5 12.2 229 29.8
2004-07-15 09:32:44 51°8.077 2°12.708 233.1 12.1 227 28.8
2004-07-15 09:33:44 51°7.941 2°12.47 233.8 12.1 228 28.1
2004-07-15 09:34:44 51°7.807 2°12.231 233.2 12.2 228 27.1
2004-07-15 09:35:43 51°7.674 2°11.997 232.6 12.2 228 26.2
2004-07-15 09:36:44 51°7.536 2°11.755 233.7 12.1 227 24.8
2004-07-15 09:37:44 51°7.401 2°11.518 233.1 12.1 228 23.1
2004-07-15 09:38:43 51°7.267 2°11.286 232.9 12.1 227 20.8
2004-07-15 09:39:44 51°7.129 2°11.045 233.7 12.1 228 20.2
2004-07-15 09:40:44 51°6.992 2°10.81 231 12.1 224 19.3
2004-07-15 09:41:43 51°6.845 2°10.597 229.3 12.1 222 17.8
2004-07-15 09:42:44 51°6.694 2°10.374 229.3 12.2 222 17
2004-07-15 09:43:44 51°6.553 2°10.145 235.1 12.1 231 15.9
2004-07-15 09:44:43 51°6.428 2°9.902 236 12.1 230 15.5
2004-07-15 09:45:45 51°6.297 2°9.645 236.2 12 231 14.5
2004-07-15 09:46:44 51°6.197 2°9.453 237.1 6.4 229 14.1
2004-07-15 09:47:44 51°6.152 2°9.371 237.3 2.8 223 14.6
2004-07-15 09:48:44 51°6.138 2°9.369 232.9 0.9 108 14.5
2004-07-15 09:49:43 51°6.134 2°9.396 222.7 1.2 92 14.4
2004-07-15 09:50:44 51°6.134 2°9.437 207.6 1.7 87 14.2
2004-07-15 09:51:43 51°6.129 2°9.482 189.8 2 127 14
2004-07-15 09:52:44 51°6.094 2°9.502 217.4 2.2 184 13.5
2004-07-15 09:53:44 51°6.063 2°9.468 243.8 2.6 233 13.5
2004-07-15 09:54:44 51°6.049 2°9.398 262.7 2.9 265 13
2004-07-15 09:55:43 51°6.051 2°9.326 269.9 2.7 277 13.9
2004-07-15 09:56:44 51°6.062 2°9.257 277.2 2.5 291 13.7
2004-07-15 09:57:43 51°6.085 2°9.2 291.7 2.8 313 14
2004-07-15 09:58:43 51°6.114 2°9.147 289 2.5 309 13.3
2004-07-15 09:59:44 51°6.139 2°9.095 281.6 2.4 303 14.4
2004-07-15 10:00:44 51°6.155 2°9.043 273.1 2.1 291 14.9
2004-07-15 10:01:44 51°6.163 2°8.989 264.6 2.2 274 14.8
2004-07-15 10:02:43 51°6.157 2°8.93 256.5 2.5 259 15.8
2004-07-15 10:03:44 51°6.149 2°8.86 257.8 2.7 261 15.4
2004-07-15 10:04:44 51°6.139 2°8.792 254.4 2.7 254 16
2004-07-15 10:05:43 51°6.127 2°8.725 253.2 2.6 250 16.2
2004-07-15 10:06:43 51°6.113 2°8.657 251.3 2.7 250 15.2
2004-07-15 10:07:44 51°6.094 2°8.591 246.3 2.7 242 15.7
2004-07-15 10:08:44 51°6.073 2°8.528 246.7 2.6 244 16.1
2004-07-15 10:09:44 51°6.053 2°8.469 246.2 2.6 243 15.1
2004-07-15 10:10:42 51°6.033 2°8.411 245.3 2.6 240 16.2
2004-07-15 10:11:44 51°6.011 2°8.349 244.2 2.6 239 15.8
2004-07-15 10:12:44 51°5.989 2°8.292 245.3 2.5 240 16.2
2004-07-15 10:13:43 51°5.968 2°8.235 244 2.6 237 15.3
2004-07-15 10:14:44 51°5.943 2°8.177 242.1 2.6 236 16.4
2004-07-15 10:15:44 51°5.92 2°8.119 245.3 2.6 244 13.1
2004-07-15 10:16:43 51°5.901 2°8.06 245.9 2.5 243 17
2004-07-15 10:17:44 51°5.877 2°8 245.2 2.7 241 14.6
2004-07-15 10:18:45 51°5.856 2°7.937 245 2.6 239 16.5
2004-07-15 10:19:44 51°5.832 2°7.876 246 2.8 241 16.7
2004-07-15 10:20:44 51°5.811 2°7.811 246.3 2.8 243 15.5
2004-07-15 10:21:44 51°5.791 2°7.746 244.4 2.6 238 17.3
2004-07-15 10:22:44 51°5.769 2°7.686 247.5 2.7 246 14.3
2004-07-15 10:23:43 51°5.754 2°7.623 250.7 2.5 253 17.1
2004-07-15 10:24:43 51°5.741 2°7.559 251.6 2.5 256 15.9
2004-07-15 10:25:44 51°5.73 2°7.496 253.4 2.5 256 17.1
2004-07-15 10:26:43 51°5.722 2°7.43 256.1 2.5 261 17.2
2004-07-15 10:27:43 51°5.724 2°7.361 268 2.8 287 16.3
2004-07-15 10:28:44 51°5.744 2°7.291 277.9 3.1 303 17.6
2004-07-15 10:29:44 51°5.781 2°7.227 295.3 3.7 325 16.3
2004-07-15 10:30:44 51°5.847 2°7.183 320 4.7 345 18.1
2004-07-15 10:31:44 51°5.929 2°7.181 345.9 4.5 9 18.1
2004-07-15 10:32:44 51°5.992 2°7.204 343 3.3 15 18.5
2004-07-15 10:33:44 51°6.04 2°7.233 341.9 3.1 22 20.6
2004-07-15 10:34:43 51°6.092 2°7.269 2.1 4 25 22.2
2004-07-15 10:35:45 51°6.15 2°7.362 64.7 5.5 63 19.3
2004-07-15 10:36:44 51°6.176 2°7.506 95 5.4 82 22.1
2004-07-15 10:37:43 51°6.183 2°7.629 109.5 4.3 87 21.8
2004-07-15 10:38:43 51°6.185 2°7.734 120.4 3.7 89 18.9
2004-07-15 10:39:44 51°6.185 2°7.831 126.6 3.5 90 19.1
2004-07-15 10:40:44 51°6.185 2°7.918 131 3.3 90 19.4
2004-07-15 10:41:43 51°6.184 2°8 130.8 3.1 92 19.3
2004-07-15 10:42:43 51°6.184 2°8.083 129.7 3.2 89 16.5
2004-07-15 10:43:43 51°6.185 2°8.167 129 3.1 90 19.1
2004-07-15 10:44:44 51°6.186 2°8.251 129.1 3.2 90 18
2004-07-15 10:45:45 51°6.187 2°8.338 127.8 3.3 89 18.3
2004-07-15 10:46:43 51°6.189 2°8.421 124.1 3.3 88 17
2004-07-15 10:47:45 51°6.191 2°8.513 122.3 3.4 88 17
2004-07-15 10:48:43 51°6.195 2°8.597 118.4 3.4 84 15.6
2004-07-15 10:49:44 51°6.204 2°8.687 99.4 3.4 76 16.4
2004-07-15 10:50:43 51°6.22 2°8.777 90.8 3.8 73 16.6
2004-07-15 10:51:43 51°6.236 2°8.874 100.2 3.8 80 16.7
2004-07-15 10:52:44 51°6.245 2°8.973 108.2 3.6 84 16.2
2004-07-15 10:53:44 51°6.253 2°9.068 104.5 3.5 82 16.3
2004-07-15 10:54:44 51°6.268 2°9.159 82.9 3.6 71 15.2
2004-07-15 10:55:44 51°6.292 2°9.251 76.2 3.8 67 16.2
2004-07-15 10:56:44 51°6.316 2°9.345 73.6 3.9 67 15.9
2004-07-15 10:57:45 51°6.344 2°9.441 69.3 3.9 63 15.5
2004-07-15 10:58:44 51°6.373 2°9.531 64.7 3.9 62 16.1
2004-07-15 10:59:43 51°6.401 2°9.621 67 3.8 64 15.9
2004-07-15 11:00:45 51°6.431 2°9.712 63.9 3.8 61 16.2
2004-07-15 11:01:45 51°6.462 2°9.797 58 3.8 57 16.4
2004-07-15 11:02:45 51°6.496 2°9.878 52.5 3.7 55 15.8
2004-07-15 11:03:43 51°6.531 2°9.954 47.7 3.6 52 16.8
2004-07-15 11:04:43 51°6.569 2°10.028 39.8 3.6 50 15.9
2004-07-15 11:05:43 51°6.607 2°10.097 34.8 3.4 49 16.8
2004-07-15 11:06:43 51°6.646 2°10.163 36.6 3.4 50 16.7
2004-07-15 11:07:44 51°6.681 2°10.243 60.8 4 60 17.1
2004-07-15 11:08:43 51°6.713 2°10.337 67.5 4.3 63 17.6
2004-07-15 11:09:44 51°6.744 2°10.446 79.6 4.4 70 17.9
2004-07-15 11:10:43 51°6.761 2°10.549 97.2 3.8 80 17.7
2004-07-15 11:11:44 51°6.769 2°10.643 112.3 3.3 85 16.9
2004-07-15 11:12:43 51°6.772 2°10.72 124.7 3 92 16.3
2004-07-15 11:13:43 51°6.768 2°10.823 108 4.3 89 16.5
2004-07-15 11:14:44 51°6.778 2°10.935 92.7 4.2 78 15.5
2004-07-15 11:15:44 51°6.798 2°11.036 79.6 3.9 70 15.5
2004-07-15 11:16:44 51°6.824 2°11.123 63.1 3.5 60 15.8
2004-07-15 11:17:44 51°6.857 2°11.194 40.6 3.1 48 15.9
2004-07-15 11:18:45 51°6.891 2°11.249 19.3 2.6 43 15.9
2004-07-15 11:19:45 51°6.925 2°11.291 358.1 2.5 31 15.7
2004-07-15 11:20:45 51°6.965 2°11.316 341.9 2.6 18 16.8
2004-07-15 11:21:44 51°7.007 2°11.334 332.9 2.5 13 17.4
2004-07-15 11:22:44 51°7.049 2°11.346 328.7 2.4 9 17.1
2004-07-15 11:23:44 51°7.089 2°11.358 326.4 2.6 10 17.5
2004-07-15 11:24:43 51°7.128 2°11.37 319.9 2.5 7 19.2
2004-07-15 11:25:44 51°7.165 2°11.376 316.6 2.1 5 19.7
2004-07-15 11:26:44 51°7.2 2°11.381 311.8 1.9 3 20.1
2004-07-15 11:27:43 51°7.235 2°11.384 308.2 2.1 2 20.2
2004-07-15 11:28:44 51°7.271 2°11.386 308 2 359 21.3
2004-07-15 11:29:45 51°7.306 2°11.38 303.5 2.3 345 21.3
2004-07-15 11:30:44 51°7.358 2°11.353 318.9 4.6 339 22.2
2004-07-15 11:31:49 51°7.477 2°11.362 5.4 7.8 11 26.2
2004-07-15 11:32:48 51°7.61 2°11.388 358.3 8.3 5 28.8
2004-07-15 11:33:48 51°7.75 2°11.401 358.1 8.7 6 31.6
2004-07-15 11:34:49 51°7.882 2°11.452 10.4 6.9 20 33.4
2004-07-15 11:35:48 51°7.945 2°11.515 20.2 3 50 34.2
2004-07-15 11:36:49 51°7.983 2°11.583 18.1 3.6 46 34.6
2004-07-15 11:37:48 51°8.027 2°11.645 9.4 3.6 37 35.4
2004-07-15 11:38:49 51°8.078 2°11.706 10.8 3.9 36 36.3
2004-07-15 11:39:48 51°8.13 2°11.775 24.5 4.3 44 36.6
2004-07-15 11:40:49 51°8.18 2°11.864 38 4.5 51 36.8
2004-07-15 11:41:48 51°8.222 2°11.964 56.7 4.7 61 36.3
2004-07-15 11:42:49 51°8.253 2°12.08 73.4 4.7 70 35
2004-07-15 11:43:48 51°8.28 2°12.196 76.8 4.8 72 33.3
2004-07-15 11:44:49 51°8.304 2°12.311 78.5 4.4 71 34.6
2004-07-15 11:45:48 51°8.329 2°12.413 69.6 4 66 35.6
2004-07-15 11:46:49 51°8.357 2°12.511 64.8 4 65 36.9
2004-07-15 11:47:48 51°8.384 2°12.604 63.3 3.9 65 37.1
2004-07-15 11:48:49 51°8.412 2°12.699 62.4 3.8 65 37.4
2004-07-15 11:49:48 51°8.439 2°12.789 63 3.9 65 37.4
2004-07-15 11:50:49 51°8.466 2°12.882 64.4 3.8 66 36.4
2004-07-15 11:51:49 51°8.492 2°12.973 64 3.8 65 36.9
2004-07-15 11:52:47 51°8.518 2°13.061 63.8 3.8 65 37.5
2004-07-15 11:53:48 51°8.546 2°13.153 64.3 3.9 64 36.7
2004-07-15 11:54:49 51°8.572 2°13.247 64.9 3.9 66 36.3
2004-07-15 11:55:47 51°8.598 2°13.335 61.7 3.8 65 37
2004-07-15 11:56:49 51°8.627 2°13.426 57.3 3.7 63 37.5
2004-07-15 11:57:49 51°8.656 2°13.514 51.7 3.8 61 36.5
2004-07-15 11:58:49 51°8.688 2°13.599 44.5 3.7 60 36.7
2004-07-15 11:59:48 51°8.72 2°13.682 43.2 3.8 58 36.3
2004-07-15 12:00:48 51°8.753 2°13.765 41.9 3.7 58 36.4
2004-07-15 12:01:48 51°8.787 2°13.848 41.3 3.7 57 35.9
2004-07-15 12:02:49 51°8.821 2°13.931 39.8 3.7 57 37
2004-07-15 12:03:49 51°8.856 2°14.011 37.2 3.6 56 37.8
2004-07-15 12:04:48 51°8.889 2°14.089 35.8 3.6 55 38.2
2004-07-15 12:05:49 51°8.925 2°14.167 32.6 3.6 54 37.7
2004-07-15 12:06:49 51°8.959 2°14.244 33.5 3.5 55 37.3
2004-07-15 12:07:49 51°8.992 2°14.323 36.2 3.6 57 37.2
2004-07-15 12:08:48 51°9.025 2°14.4 38.5 3.6 58 37.1
2004-07-15 12:09:49 51°9.055 2°14.492 66 4.1 67 35
2004-07-15 12:10:49 51°9.08 2°14.599 77 4.4 72 35.3
2004-07-15 12:11:49 51°9.101 2°14.713 79.4 4.6 73 35
2004-07-15 12:12:48 51°9.123 2°14.825 78.6 4.6 74 34.7
2004-07-15 12:13:48 51°9.143 2°14.941 81.7 4.6 76 34.3
2004-07-15 12:14:47 51°9.163 2°15.055 80 4.5 73 31.7
2004-07-15 12:15:49 51°9.186 2°15.17 78.1 4.3 73 31.8
2004-07-15 12:16:49 51°9.205 2°15.278 80.1 4.2 74 30
2004-07-15 12:17:49 51°9.222 2°15.384 85.8 4.1 76 30.1
2004-07-15 12:18:48 51°9.236 2°15.486 94.2 3.9 80 29.1
2004-07-15 12:19:49 51°9.245 2°15.586 104.3 3.6 84 28.2
2004-07-15 12:20:49 51°9.251 2°15.676 114.1 3.4 85 27.5
2004-07-15 12:21:48 51°9.255 2°15.759 121.5 3 85 27.1
2004-07-15 12:22:49 51°9.259 2°15.837 127.3 2.9 86 26.9
2004-07-15 12:23:49 51°9.263 2°15.91 133.5 2.7 86 26.5
2004-07-15 12:24:49 51°9.267 2°15.977 137.8 2.5 85 26.1
2004-07-15 12:25:48 51°9.272 2°16.041 140 2.4 83 26
2004-07-15 12:26:49 51°9.278 2°16.107 141.4 2.5 82 26.4
2004-07-15 12:27:48 51°9.282 2°16.168 146.6 2.3 83 26.1
2004-07-15 12:28:49 51°9.286 2°16.227 151.1 2.1 85 26.2
2004-07-15 12:29:49 51°9.29 2°16.283 157.2 2 84 26.2
2004-07-15 12:30:49 51°9.294 2°16.337 157.9 2 83 25.9
2004-07-15 12:31:49 51°9.297 2°16.39 159 2 84 26
2004-07-15 12:32:48 51°9.301 2°16.442 158.3 2 85 26.1
2004-07-15 12:33:49 51°9.303 2°16.495 161.6 2 87 26.2
2004-07-15 12:34:49 51°9.306 2°16.546 165.3 1.8 85 26.1
2004-07-15 12:35:49 51°9.309 2°16.594 171.8 1.8 83 26.8
2004-07-15 12:36:49 51°9.304 2°16.642 171.9 2.6 129 26.6
2004-07-15 12:37:49 51°9.251 2°16.729 152.5 5.7 136 23.2
2004-07-15 12:38:48 51°9.176 2°16.87 141.3 8 126 19.5
2004-07-15 12:39:48 51°9.09 2°17.054 135.7 9.1 128 20.8
2004-07-15 12:40:49 51°8.997 2°17.256 136.3 9.4 127 27
2004-07-15 12:41:49 51°8.908 2°17.465 133.1 9.6 123 28.8
2004-07-15 12:42:49 51°8.821 2°17.679 130.9 9.7 122 28.9
2004-07-15 12:43:49 51°8.739 2°17.899 129.8 9.7 121 27.4
2004-07-15 12:44:49 51°8.654 2°18.129 130.1 10.2 120 26.6
2004-07-15 12:45:49 51°8.565 2°18.36 131.1 10.2 122 24.6
2004-07-15 12:46:49 51°8.477 2°18.589 125.9 10.2 116 18.6
2004-07-15 12:47:49 51°8.458 2°18.848 85.9 9.8 79 18
2004-07-15 12:48:49 51°8.494 2°19.002 54.2 3.2 53 19.1
2004-07-15 12:49:49 51°8.517 2°19.045 14.2 1.9 44 19.7
2004-07-15 12:50:49 51°8.542 2°19.078 6.2 2.4 31 20.8
2004-07-15 12:51:49 51°8.585 2°19.123 31.7 3.3 40 22.1
2004-07-15 12:52:49 51°8.621 2°19.197 61.8 3.7 61 22.6
2004-07-15 12:53:49 51°8.642 2°19.286 78.9 3.5 72 23.4
2004-07-15 12:54:49 51°8.657 2°19.373 85.6 3.3 78 23.5
2004-07-15 12:55:49 51°8.667 2°19.459 92.1 3.3 81 23.1
2004-07-15 12:56:49 51°8.675 2°19.542 95.1 3.1 82 23.3
2004-07-15 12:57:49 51°8.682 2°19.624 95.7 3 80 23.3
2004-07-15 12:58:49 51°8.689 2°19.703 97.3 3 84 23.5
2004-07-15 12:59:49 51°8.695 2°19.782 99.1 3 85 23.1
2004-07-15 13:00:49 51°8.699 2°19.859 100.9 2.9 86 24.6
2004-07-15 13:01:49 51°8.703 2°19.934 101 2.8 85 23.8
2004-07-15 13:02:49 51°8.708 2°20.009 96.2 2.9 80 23.6
2004-07-15 13:03:49 51°8.716 2°20.082 87.9 2.8 77 23.6
2004-07-15 13:04:48 51°8.728 2°20.153 79.2 2.8 73 22.6
2004-07-15 13:05:49 51°8.744 2°20.226 75.8 2.9 71 22.9
2004-07-15 13:06:48 51°8.757 2°20.297 80.9 2.9 75 23
2004-07-15 13:07:49 51°8.77 2°20.372 84.6 2.9 76 23.6
2004-07-15 13:08:49 51°8.782 2°20.448 88.3 3 77 21
2004-07-15 13:09:49 51°8.791 2°20.526 93.9 3 80 22.6
2004-07-15 13:10:49 51°8.8 2°20.601 93.5 2.9 79 21.5
2004-07-15 13:11:49 51°8.811 2°20.676 87.6 2.9 75 22
2004-07-15 13:12:49 51°8.825 2°20.749 82 2.9 72 22
2004-07-15 13:13:49 51°8.842 2°20.82 74.5 2.8 68 21.6
2004-07-15 13:14:49 51°8.86 2°20.888 72.8 2.8 65 21.8
2004-07-15 13:15:49 51°8.88 2°20.956 72.2 2.8 68 21.2
2004-07-15 13:16:49 51°8.898 2°21.025 73.1 2.8 67 21
2004-07-15 13:17:49 51°8.916 2°21.088 73.1 2.8 65 20.3
2004-07-15 13:18:49 51°8.935 2°21.155 72.9 2.8 65 20.7
2004-07-15 13:19:49 51°8.954 2°21.224 72.5 2.8 66 20.5
2004-07-15 13:20:49 51°8.974 2°21.291 74.1 2.8 67 19.1
2004-07-15 13:21:49 51°8.987 2°21.36 89.4 2.7 75 18.9
2004-07-15 13:22:49 51°8.998 2°21.43 92 2.7 78 17.9
2004-07-15 13:23:49 51°9.007 2°21.499 95.4 2.7 79 19.4
2004-07-15 13:24:49 51°9.015 2°21.569 98.1 2.7 80 18.7
2004-07-15 13:25:49 51°9.021 2°21.641 100.9 2.6 80 18.3
2004-07-15 13:26:49 51°9.025 2°21.706 107.1 2.4 79 17.9
2004-07-15 13:27:49 51°9.028 2°21.764 114.1 2.1 86 17.6
2004-07-15 13:28:49 51°9.031 2°21.822 100.8 2.4 79 17.5
2004-07-15 13:29:49 51°9.048 2°21.884 65 2.7 55 17.2
2004-07-15 13:30:49 51°9.078 2°21.93 34 2.3 37 16.7
2004-07-15 13:31:49 51°9.107 2°21.96 16.2 2 29 17.2
2004-07-15 13:32:49 51°9.133 2°21.983 1.7 1.7 28 16.8
2004-07-15 13:33:49 51°9.157 2°22.002 352.5 1.5 28 17.5
2004-07-15 13:34:49 51°9.178 2°22.019 342.9 1.5 29 17.9
2004-07-15 13:35:49 51°9.203 2°22.031 336.7 1.8 4 17.6
2004-07-15 13:36:47 51°9.235 2°22.032 329.6 2.1 353 17.9
2004-07-15 13:37:49 51°9.272 2°22.023 322.5 2.2 349 18.6
2004-07-15 13:38:49 51°9.306 2°22.005 311.1 2.1 335 21.1
2004-07-15 13:39:49 51°9.337 2°21.98 303.6 2.1 330 20.3
2004-07-15 13:40:49 51°9.365 2°21.953 295.8 1.8 324 23.7
2004-07-15 13:41:49 51°9.387 2°21.921 285.7 1.7 313 25.2
2004-07-15 13:42:48 51°9.402 2°21.888 274.7 1.5 301 25.5
2004-07-15 13:43:49 51°9.41 2°21.853 263.1 1.3 284 25.4
2004-07-15 13:44:55 51°9.408 2°21.82 244.2 1.1 245 25.8
2004-07-15 13:45:55 51°9.392 2°21.801 221 1.3 201 25.8
2004-07-15 13:46:55 51°9.368 2°21.803 198.1 1.6 165 24.7
2004-07-15 13:47:55 51°9.33 2°21.854 132.9 5 118 24.6
2004-07-15 13:48:55 51°9.354 2°22.023 66.8 8 61 21.5
2004-07-15 13:49:55 51°9.44 2°22.211 56.1 9.3 53 22.1
2004-07-15 13:50:55 51°9.568 2°22.476 56.9 14.1 52 23.6
2004-07-15 13:51:55 51°9.713 2°22.777 57.5 14.3 54 22.7
2004-07-15 13:52:55 51°9.851 2°23.079 58.7 14 54 23.4
2004-07-15 13:53:55 51°9.992 2°23.382 57.5 14.4 54 22.8
2004-07-15 13:54:55 51°10.136 2°23.69 58.6 14.4 55 19.9
2004-07-15 13:55:55 51°10.26 2°24.014 66.8 14.3 62 17.3
2004-07-15 13:56:55 51°10.366 2°24.348 68.3 14 64 14.5
2004-07-15 13:57:55 51°10.476 2°24.677 67.6 14 64 13.9
2004-07-15 13:58:55 51°10.578 2°25.008 66.8 14 62 14.4
2004-07-15 13:59:55 51°10.674 2°25.347 71.6 14.1 67 16.4
2004-07-15 14:00:55 51°10.764 2°25.687 72.2 14.1 68 18.1
2004-07-15 14:01:55 51°10.854 2°26.035 72.5 14.2 68 19.6
2004-07-15 14:02:55 51°10.94 2°26.379 71.8 14 68 21.6
2004-07-15 14:03:55 51°11.031 2°26.722 71.1 14.1 66 23.3
2004-07-15 14:05:00 51°11.129 2°27.094 71.2 13.9 68 24
2004-07-15 14:05:59 51°11.214 2°27.434 71.5 14 67 24.6
2004-07-15 14:06:59 51°11.303 2°27.777 72.9 13.9 69 23.8
2004-07-15 14:07:59 51°11.393 2°28.122 72.4 14.1 67 23.7
2004-07-15 14:08:59 51°11.472 2°28.477 76 14.3 71 23.2
2004-07-15 14:09:59 51°11.551 2°28.829 74.6 14.1 71 24.8
2004-07-15 14:10:59 51°11.633 2°29.179 74.4 14 70 24.2
2004-07-15 14:12:00 51°11.718 2°29.533 72.5 14.1 69 23.6
2004-07-15 14:13:00 51°11.798 2°29.882 75.9 13.9 70 23.2
2004-07-15 14:13:59 51°11.879 2°30.223 74.9 14.2 71 23.5
2004-07-15 14:14:59 51°11.965 2°30.57 74.7 14.2 72 23.4
2004-07-15 14:15:59 51°12.048 2°30.92 74.7 14.1 70 23.7
2004-07-15 14:17:00 51°12.131 2°31.272 74.9 14 70 23.6
2004-07-15 14:18:00 51°12.214 2°31.622 74.8 14 69 22.7
2004-07-15 14:18:59 51°12.297 2°31.963 75 13.9 70 20.8
2004-07-15 14:20:00 51°12.384 2°32.31 73.1 13.6 67 18.5
2004-07-15 14:20:59 51°12.468 2°32.644 73.9 13.9 69 17.3
2004-07-15 14:22:00 51°12.561 2°32.991 70.2 14 66 15.6
2004-07-15 14:23:00 51°12.655 2°33.33 71.1 13.9 67 15.6
2004-07-15 14:23:59 51°12.749 2°33.663 72.1 14.3 65 16.1
2004-07-15 14:24:59 51°12.845 2°34.004 71.7 14.5 64 17.4
2004-07-15 14:26:00 51°12.946 2°34.356 70.8 14.3 66 18.1
2004-07-15 14:27:00 51°13.045 2°34.7 72.1 14.2 65 18.2
2004-07-15 14:28:00 51°13.144 2°35.041 71.1 14.4 66 17.6
2004-07-15 14:29:00 51°13.237 2°35.377 73.3 13.9 66 17.8
2004-07-15 14:29:59 51°13.339 2°35.705 69 14.1 66 18
2004-07-15 14:31:00 51°13.445 2°36.041 68.4 13.9 63 17.9
2004-07-15 14:31:59 51°13.546 2°36.367 69.1 13.9 64 18.8
2004-07-15 14:32:58 51°13.646 2°36.687 68.5 13.7 64 19.8
2004-07-15 14:34:00 51°13.751 2°37.025 69.2 13.7 64 20.3
2004-07-15 14:34:59 51°13.852 2°37.347 67.9 13.8 63 19.9
2004-07-15 14:35:59 51°13.953 2°37.676 68.1 13.9 63 18.7
2004-07-15 14:37:00 51°14.052 2°38.01 70.2 13.7 64 18.4
2004-07-15 14:38:00 51°14.15 2°38.334 70.3 13.7 65 17.9
2004-07-15 14:38:59 51°14.247 2°38.656 69.6 13.7 68 15.7
2004-07-15 14:40:00 51°14.295 2°39.011 86.9 13.4 81 14.5
2004-07-15 14:40:58 51°14.306 2°39.355 94.8 13.5 88 13.3
2004-07-15 14:42:00 51°14.314 2°39.726 93.6 13.7 88 13.8
2004-07-15 14:42:59 51°14.328 2°40.083 90.6 13.9 86 13.4
2004-07-15 14:44:00 51°14.336 2°40.449 91.1 13.6 86 14.4
2004-07-15 14:45:00 51°14.349 2°40.809 91.4 13.8 87 14.3
2004-07-15 14:46:00 51°14.36 2°41.171 92.9 13.5 87 14.9
2004-07-15 14:46:59 51°14.373 2°41.527 92.9 13.6 91 14.7
2004-07-15 14:47:59 51°14.361 2°41.887 97.6 13.6 94 17
2004-07-15 14:49:00 51°14.346 2°42.257 97.8 13.6 92 17.8
2004-07-15 14:50:00 51°14.349 2°42.621 89.4 13.8 83 17.6
2004-07-15 14:50:59 51°14.375 2°42.975 88.4 13.6 84 17.4
2004-07-15 14:51:59 51°14.398 2°43.33 89 13.3 86 17
2004-07-15 14:52:59 51°14.417 2°43.69 88.4 13.9 84 16.1
2004-07-15 14:53:59 51°14.436 2°44.05 88.9 13.6 84 15.1
2004-07-15 14:55:00 51°14.458 2°44.411 87.6 13.4 84 13.9
2004-07-15 14:55:59 51°14.479 2°44.756 88.8 13.3 85 12.3
2004-07-15 14:57:00 51°14.5 2°45.113 89.4 13.2 85 10.4
2004-07-15 14:57:59 51°14.52 2°45.453 88.9 12.9 84 8.6
2004-07-15 14:58:59 51°14.56 2°45.79 84.7 13.1 82 8.8
2004-07-15 15:00:00 51°14.592 2°46.146 83.7 13.4 82 10.6
2004-07-15 15:00:59 51°14.631 2°46.495 85.6 13.3 83 12.4
2004-07-15 15:02:00 51°14.619 2°46.856 100.3 13.4 97 13.2
2004-07-15 15:03:00 51°14.605 2°47.211 96.1 13.4 92 12.6
2004-07-15 15:04:00 51°14.593 2°47.562 97 13.1 94 11.1
2004-07-15 15:04:59 51°14.581 2°47.905 99.2 13.4 94 11.1
2004-07-15 15:05:59 51°14.572 2°48.26 95.8 13.5 91 12.1
2004-07-15 15:07:00 51°14.566 2°48.625 94 13.6 91 12.4
2004-07-15 15:07:59 51°14.564 2°48.975 93.3 13.3 90 12.6
2004-07-15 15:08:59 51°14.562 2°49.33 93.1 13.5 90 12.2
2004-07-15 15:09:59 51°14.555 2°49.681 94.1 13.1 93 12.2
2004-07-15 15:11:00 51°14.552 2°50.04 92.5 13.2 90 11.9
2004-07-15 15:12:00 51°14.551 2°50.389 92.8 13.3 89 11.3
2004-07-15 15:13:00 51°14.547 2°50.74 94.1 13.2 92 10.8
2004-07-15 15:14:00 51°14.541 2°51.091 93.8 13.1 91 10.3
2004-07-15 15:14:59 51°14.535 2°51.435 95.5 13.1 92 9.9
2004-07-15 15:15:59 51°14.532 2°51.785 94 13.2 90 9.6
2004-07-15 15:16:59 51°14.528 2°52.134 93.6 13.2 91 9.5
2004-07-15 15:17:59 51°14.523 2°52.484 92.9 13.1 91 9.4
2004-07-15 15:18:59 51°14.516 2°52.834 92.9 13.2 89 9.2
2004-07-15 15:20:00 51°14.511 2°53.188 95.6 13 91 8.8
2004-07-15 15:20:59 51°14.518 2°53.533 95.4 13.4 92 9.9
2004-07-15 15:22:00 51°14.514 2°53.892 93.6 13.3 90 9.9
2004-07-15 15:22:59 51°14.511 2°54.24 99.5 13.5 98 11.1
2004-07-15 15:23:59 51°14.466 2°54.573 107.1 12.7 106 10.8
2004-07-15 15:25:00 51°14.401 2°54.896 112.6 12.6 114 10.4
2004-07-15 15:25:59 51°14.303 2°55.188 127.2 12.3 127 11
2004-07-15 15:26:59 51°14.17 2°55.379 152.5 9.7 152 11